sensor_id;sensor_type;location;lat;lon;timestamp;P1;durP1;ratioP1;P2;durP2;ratioP2
63280;SDS011;49406;51.044;3.766;2023-05-07T00:00:56;1.60;;;0.50;;
63280;SDS011;49406;51.044;3.766;2023-05-07T00:03:31;4.20;;;1.40;;
63280;SDS011;49406;51.044;3.766;2023-05-07T00:06:06;3.40;;;1.50;;
63280;SDS011;49406;51.044;3.766;2023-05-07T00:08:41;2.10;;;1.10;;
63280;SDS011;49406;51.044;3.766;2023-05-07T00:13:48;1.40;;;0.90;;
63280;SDS011;49406;51.044;3.766;2023-05-07T00:16:23;6.60;;;2.40;;
63280;SDS011;49406;51.044;3.766;2023-05-07T00:18:57;2.60;;;1.30;;
63280;SDS011;49406;51.044;3.766;2023-05-07T00:21:31;2.10;;;1.40;;
63280;SDS011;49406;51.044;3.766;2023-05-07T00:24:06;5.40;;;4.60;;
63280;SDS011;49406;51.044;3.766;2023-05-07T00:26:40;4.70;;;2.70;;
63280;SDS011;49406;51.044;3.766;2023-05-07T00:29:15;5.40;;;1.80;;
63280;SDS011;49406;51.044;3.766;2023-05-07T00:31:50;6.60;;;3.30;;
63280;SDS011;49406;51.044;3.766;2023-05-07T00:34:26;5.80;;;3.10;;
63280;SDS011;49406;51.044;3.766;2023-05-07T00:37:00;5.50;;;2.70;;
63280;SDS011;49406;51.044;3.766;2023-05-07T00:39:35;3.80;;;2.80;;
63280;SDS011;49406;51.044;3.766;2023-05-07T00:42:09;7.00;;;2.90;;
63280;SDS011;49406;51.044;3.766;2023-05-07T00:44:44;5.00;;;3.10;;
63280;SDS011;49406;51.044;3.766;2023-05-07T00:47:18;6.50;;;2.60;;
63280;SDS011;49406;51.044;3.766;2023-05-07T00:49:52;11.90;;;5.60;;
63280;SDS011;49406;51.044;3.766;2023-05-07T00:52:27;3.00;;;2.50;;
63280;SDS011;49406;51.044;3.766;2023-05-07T00:55:03;5.60;;;4.80;;
63280;SDS011;49406;51.044;3.766;2023-05-07T00:57:39;4.30;;;2.80;;
63280;SDS011;49406;51.044;3.766;2023-05-07T01:00:14;3.30;;;2.60;;
63280;SDS011;49406;51.044;3.766;2023-05-07T01:02:49;6.20;;;3.20;;
63280;SDS011;49406;51.044;3.766;2023-05-07T01:05:23;5.60;;;3.30;;
63280;SDS011;49406;51.044;3.766;2023-05-07T01:07:59;3.20;;;2.30;;
63280;SDS011;49406;51.044;3.766;2023-05-07T01:10:34;4.50;;;3.30;;
63280;SDS011;49406;51.044;3.766;2023-05-07T01:13:09;2.90;;;2.40;;
63280;SDS011;49406;51.044;3.766;2023-05-07T01:15:45;4.60;;;2.70;;
63280;SDS011;49406;51.044;3.766;2023-05-07T01:18:19;4.90;;;2.20;;
63280;SDS011;49406;51.044;3.766;2023-05-07T01:20:54;7.90;;;3.30;;
63280;SDS011;49406;51.044;3.766;2023-05-07T01:23:30;4.40;;;2.90;;
63280;SDS011;49406;51.044;3.766;2023-05-07T01:26:06;3.20;;;1.00;;
63280;SDS011;49406;51.044;3.766;2023-05-07T01:28:41;1.90;;;1.70;;
63280;SDS011;49406;51.044;3.766;2023-05-07T01:31:15;7.80;;;4.40;;
63280;SDS011;49406;51.044;3.766;2023-05-07T01:36:24;3.00;;;1.00;;
63280;SDS011;49406;51.044;3.766;2023-05-07T01:39:01;1.50;;;0.80;;
63280;SDS011;49406;51.044;3.766;2023-05-07T01:41:36;2.20;;;1.40;;
63280;SDS011;49406;51.044;3.766;2023-05-07T01:44:11;7.90;;;3.40;;
63280;SDS011;49406;51.044;3.766;2023-05-07T01:46:47;3.50;;;1.20;;
63280;SDS011;49406;51.044;3.766;2023-05-07T01:49:22;2.80;;;2.50;;
63280;SDS011;49406;51.044;3.766;2023-05-07T01:51:56;3.50;;;3.20;;
63280;SDS011;49406;51.044;3.766;2023-05-07T01:54:31;7.20;;;3.30;;
63280;SDS011;49406;51.044;3.766;2023-05-07T01:57:06;5.00;;;3.50;;
63280;SDS011;49406;51.044;3.766;2023-05-07T01:59:40;4.00;;;2.90;;
63280;SDS011;49406;51.044;3.766;2023-05-07T02:02:15;4.30;;;2.30;;
63280;SDS011;49406;51.044;3.766;2023-05-07T02:04:49;5.20;;;3.00;;
63280;SDS011;49406;51.044;3.766;2023-05-07T02:07:24;9.40;;;4.20;;
63280;SDS011;49406;51.044;3.766;2023-05-07T02:09:58;6.10;;;3.40;;
63280;SDS011;49406;51.044;3.766;2023-05-07T02:12:32;2.50;;;2.30;;
63280;SDS011;49406;51.044;3.766;2023-05-07T02:15:07;5.40;;;3.40;;
63280;SDS011;49406;51.044;3.766;2023-05-07T02:20:34;2.30;;;1.40;;
63280;SDS011;49406;51.044;3.766;2023-05-07T02:23:09;5.80;;;3.00;;
63280;SDS011;49406;51.044;3.766;2023-05-07T02:25:43;3.90;;;3.30;;
63280;SDS011;49406;51.044;3.766;2023-05-07T02:28:18;4.60;;;3.70;;
63280;SDS011;49406;51.044;3.766;2023-05-07T02:30:52;14.90;;;3.50;;
63280;SDS011;49406;51.044;3.766;2023-05-07T02:33:27;4.50;;;2.80;;
63280;SDS011;49406;51.044;3.766;2023-05-07T02:36:08;6.40;;;4.20;;
63280;SDS011;49406;51.044;3.766;2023-05-07T02:38:44;3.00;;;1.90;;
63280;SDS011;49406;51.044;3.766;2023-05-07T02:41:18;8.20;;;3.50;;
63280;SDS011;49406;51.044;3.766;2023-05-07T02:43:53;2.50;;;2.10;;
63280;SDS011;49406;51.044;3.766;2023-05-07T02:46:27;3.90;;;2.70;;
63280;SDS011;49406;51.044;3.766;2023-05-07T02:49:02;5.40;;;3.70;;
63280;SDS011;49406;51.044;3.766;2023-05-07T02:51:36;3.60;;;2.80;;
63280;SDS011;49406;51.044;3.766;2023-05-07T02:54:10;9.80;;;4.10;;
63280;SDS011;49406;51.044;3.766;2023-05-07T02:56:45;4.20;;;3.00;;
63280;SDS011;49406;51.044;3.766;2023-05-07T02:59:19;9.00;;;4.10;;
63280;SDS011;49406;51.044;3.766;2023-05-07T03:01:54;5.00;;;4.50;;
63280;SDS011;49406;51.044;3.766;2023-05-07T03:04:28;3.50;;;3.20;;
63280;SDS011;49406;51.044;3.766;2023-05-07T03:07:02;2.90;;;2.20;;
63280;SDS011;49406;51.044;3.766;2023-05-07T03:12:09;4.80;;;3.40;;
63280;SDS011;49406;51.044;3.766;2023-05-07T03:14:44;10.30;;;3.00;;
63280;SDS011;49406;51.044;3.766;2023-05-07T03:17:18;4.50;;;3.80;;
63280;SDS011;49406;51.044;3.766;2023-05-07T03:19:53;9.40;;;4.40;;
63280;SDS011;49406;51.044;3.766;2023-05-07T03:22:27;4.30;;;3.20;;
63280;SDS011;49406;51.044;3.766;2023-05-07T03:25:01;6.90;;;3.80;;
63280;SDS011;49406;51.044;3.766;2023-05-07T03:27:37;4.70;;;3.00;;
63280;SDS011;49406;51.044;3.766;2023-05-07T03:30:12;6.10;;;3.90;;
63280;SDS011;49406;51.044;3.766;2023-05-07T03:32:46;4.50;;;3.10;;
63280;SDS011;49406;51.044;3.766;2023-05-07T03:35:21;5.70;;;5.00;;
63280;SDS011;49406;51.044;3.766;2023-05-07T03:37:55;5.30;;;3.80;;
63280;SDS011;49406;51.044;3.766;2023-05-07T03:40:29;6.50;;;3.80;;
63280;SDS011;49406;51.044;3.766;2023-05-07T03:43:04;5.10;;;3.50;;
63280;SDS011;49406;51.044;3.766;2023-05-07T03:45:38;6.00;;;4.10;;
63280;SDS011;49406;51.044;3.766;2023-05-07T03:48:13;7.60;;;5.10;;
63280;SDS011;49406;51.044;3.766;2023-05-07T03:50:47;4.70;;;2.90;;
63280;SDS011;49406;51.044;3.766;2023-05-07T03:53:21;4.70;;;3.70;;
63280;SDS011;49406;51.044;3.766;2023-05-07T03:55:56;13.50;;;2.40;;
63280;SDS011;49406;51.044;3.766;2023-05-07T03:58:30;2.90;;;1.60;;
63280;SDS011;49406;51.044;3.766;2023-05-07T04:01:05;3.30;;;2.20;;
63280;SDS011;49406;51.044;3.766;2023-05-07T04:03:40;4.80;;;4.00;;
63280;SDS011;49406;51.044;3.766;2023-05-07T04:06:15;4.80;;;3.70;;
63280;SDS011;49406;51.044;3.766;2023-05-07T04:08:49;2.70;;;2.10;;
63280;SDS011;49406;51.044;3.766;2023-05-07T04:11:24;7.90;;;4.40;;
63280;SDS011;49406;51.044;3.766;2023-05-07T04:16:31;6.30;;;2.40;;
63280;SDS011;49406;51.044;3.766;2023-05-07T04:19:06;11.00;;;3.80;;
63280;SDS011;49406;51.044;3.766;2023-05-07T04:21:41;4.30;;;3.50;;
63280;SDS011;49406;51.044;3.766;2023-05-07T04:24:15;11.00;;;8.10;;
63280;SDS011;49406;51.044;3.766;2023-05-07T04:26:50;9.10;;;7.40;;
63280;SDS011;49406;51.044;3.766;2023-05-07T04:29:24;12.20;;;8.90;;
63280;SDS011;49406;51.044;3.766;2023-05-07T04:31:59;16.00;;;10.80;;
63280;SDS011;49406;51.044;3.766;2023-05-07T04:34:34;8.70;;;6.10;;
63280;SDS011;49406;51.044;3.766;2023-05-07T04:37:08;13.90;;;6.10;;
63280;SDS011;49406;51.044;3.766;2023-05-07T04:39:43;8.90;;;5.20;;
63280;SDS011;49406;51.044;3.766;2023-05-07T04:42:17;7.20;;;5.10;;
63280;SDS011;49406;51.044;3.766;2023-05-07T04:44:53;6.10;;;3.80;;
63280;SDS011;49406;51.044;3.766;2023-05-07T04:47:27;4.00;;;2.90;;
63280;SDS011;49406;51.044;3.766;2023-05-07T04:50:02;4.70;;;4.00;;
63280;SDS011;49406;51.044;3.766;2023-05-07T04:52:37;4.40;;;4.00;;
63280;SDS011;49406;51.044;3.766;2023-05-07T04:55:12;6.10;;;3.70;;
63280;SDS011;49406;51.044;3.766;2023-05-07T04:57:46;11.60;;;3.30;;
63280;SDS011;49406;51.044;3.766;2023-05-07T05:00:21;5.80;;;3.80;;
63280;SDS011;49406;51.044;3.766;2023-05-07T05:02:56;6.40;;;3.40;;
63280;SDS011;49406;51.044;3.766;2023-05-07T05:05:31;6.50;;;3.40;;
63280;SDS011;49406;51.044;3.766;2023-05-07T05:08:05;6.50;;;3.90;;
63280;SDS011;49406;51.044;3.766;2023-05-07T05:10:39;8.70;;;3.60;;
63280;SDS011;49406;51.044;3.766;2023-05-07T05:13:14;14.60;;;3.10;;
63280;SDS011;49406;51.044;3.766;2023-05-07T05:15:49;8.20;;;4.10;;
63280;SDS011;49406;51.044;3.766;2023-05-07T05:18:23;4.80;;;3.40;;
63280;SDS011;49406;51.044;3.766;2023-05-07T05:20:58;7.10;;;3.90;;
63280;SDS011;49406;51.044;3.766;2023-05-07T05:23:32;10.00;;;5.10;;
63280;SDS011;49406;51.044;3.766;2023-05-07T05:26:07;6.00;;;4.20;;
63280;SDS011;49406;51.044;3.766;2023-05-07T05:28:41;11.90;;;4.20;;
63280;SDS011;49406;51.044;3.766;2023-05-07T05:31:16;11.50;;;5.30;;
63280;SDS011;49406;51.044;3.766;2023-05-07T05:33:50;6.20;;;4.10;;
63280;SDS011;49406;51.044;3.766;2023-05-07T05:36:25;5.10;;;3.60;;
63280;SDS011;49406;51.044;3.766;2023-05-07T05:38:59;5.20;;;4.70;;
63280;SDS011;49406;51.044;3.766;2023-05-07T05:41:34;3.50;;;2.10;;
63280;SDS011;49406;51.044;3.766;2023-05-07T05:44:08;3.50;;;2.30;;
63280;SDS011;49406;51.044;3.766;2023-05-07T05:46:42;4.70;;;2.90;;
63280;SDS011;49406;51.044;3.766;2023-05-07T05:49:17;6.90;;;3.50;;
63280;SDS011;49406;51.044;3.766;2023-05-07T05:51:51;4.60;;;2.70;;
63280;SDS011;49406;51.044;3.766;2023-05-07T05:54:27;4.70;;;2.90;;
63280;SDS011;49406;51.044;3.766;2023-05-07T05:57:01;5.50;;;2.80;;
63280;SDS011;49406;51.044;3.766;2023-05-07T05:59:37;7.20;;;3.30;;
63280;SDS011;49406;51.044;3.766;2023-05-07T06:02:11;5.30;;;2.80;;
63280;SDS011;49406;51.044;3.766;2023-05-07T06:04:46;6.80;;;3.30;;
63280;SDS011;49406;51.044;3.766;2023-05-07T06:07:20;2.30;;;1.00;;
63280;SDS011;49406;51.044;3.766;2023-05-07T06:09:55;2.70;;;2.00;;
63280;SDS011;49406;51.044;3.766;2023-05-07T06:12:29;1.80;;;1.40;;
63280;SDS011;49406;51.044;3.766;2023-05-07T06:15:04;7.80;;;3.50;;
63280;SDS011;49406;51.044;3.766;2023-05-07T06:17:40;4.20;;;3.10;;
63280;SDS011;49406;51.044;3.766;2023-05-07T06:20:14;2.50;;;1.50;;
63280;SDS011;49406;51.044;3.766;2023-05-07T06:22:49;2.00;;;1.00;;
63280;SDS011;49406;51.044;3.766;2023-05-07T06:25:23;2.10;;;1.20;;
63280;SDS011;49406;51.044;3.766;2023-05-07T06:27:57;2.30;;;1.80;;
63280;SDS011;49406;51.044;3.766;2023-05-07T06:30:32;3.70;;;2.20;;
63280;SDS011;49406;51.044;3.766;2023-05-07T06:33:06;3.50;;;2.20;;
63280;SDS011;49406;51.044;3.766;2023-05-07T06:35:41;3.80;;;2.60;;
63280;SDS011;49406;51.044;3.766;2023-05-07T06:38:15;6.30;;;3.40;;
63280;SDS011;49406;51.044;3.766;2023-05-07T06:40:50;3.70;;;2.10;;
63280;SDS011;49406;51.044;3.766;2023-05-07T06:43:26;3.90;;;3.60;;
63280;SDS011;49406;51.044;3.766;2023-05-07T06:46:01;3.30;;;2.00;;
63280;SDS011;49406;51.044;3.766;2023-05-07T06:48:35;6.70;;;2.40;;
63280;SDS011;49406;51.044;3.766;2023-05-07T06:51:09;3.70;;;2.50;;
63280;SDS011;49406;51.044;3.766;2023-05-07T06:53:44;2.70;;;0.90;;
63280;SDS011;49406;51.044;3.766;2023-05-07T06:56:18;5.40;;;2.90;;
63280;SDS011;49406;51.044;3.766;2023-05-07T06:58:54;13.10;;;3.40;;
63280;SDS011;49406;51.044;3.766;2023-05-07T07:01:29;2.40;;;2.20;;
63280;SDS011;49406;51.044;3.766;2023-05-07T07:04:03;2.20;;;1.00;;
63280;SDS011;49406;51.044;3.766;2023-05-07T07:06:38;7.20;;;2.00;;
63280;SDS011;49406;51.044;3.766;2023-05-07T07:09:12;4.10;;;2.90;;
63280;SDS011;49406;51.044;3.766;2023-05-07T07:11:47;1.40;;;0.80;;
63280;SDS011;49406;51.044;3.766;2023-05-07T07:14:21;2.00;;;1.20;;
63280;SDS011;49406;51.044;3.766;2023-05-07T07:16:56;2.80;;;2.30;;
63280;SDS011;49406;51.044;3.766;2023-05-07T07:19:30;6.90;;;2.10;;
63280;SDS011;49406;51.044;3.766;2023-05-07T07:22:04;2.90;;;1.30;;
63280;SDS011;49406;51.044;3.766;2023-05-07T07:24:39;4.00;;;0.90;;
63280;SDS011;49406;51.044;3.766;2023-05-07T07:27:13;4.40;;;1.50;;
63280;SDS011;49406;51.044;3.766;2023-05-07T07:29:47;1.90;;;1.40;;
63280;SDS011;49406;51.044;3.766;2023-05-07T07:32:22;2.70;;;1.70;;
63280;SDS011;49406;51.044;3.766;2023-05-07T07:34:57;2.20;;;1.10;;
63280;SDS011;49406;51.044;3.766;2023-05-07T07:37:31;2.50;;;2.20;;
63280;SDS011;49406;51.044;3.766;2023-05-07T07:40:06;4.60;;;1.90;;
63280;SDS011;49406;51.044;3.766;2023-05-07T07:42:42;2.60;;;2.00;;
63280;SDS011;49406;51.044;3.766;2023-05-07T07:45:17;4.50;;;3.10;;
63280;SDS011;49406;51.044;3.766;2023-05-07T07:47:51;2.70;;;1.70;;
63280;SDS011;49406;51.044;3.766;2023-05-07T07:50:26;4.50;;;2.40;;
63280;SDS011;49406;51.044;3.766;2023-05-07T07:53:01;2.60;;;2.00;;
63280;SDS011;49406;51.044;3.766;2023-05-07T07:55:39;3.40;;;1.70;;
63280;SDS011;49406;51.044;3.766;2023-05-07T07:58:13;4.70;;;2.00;;
63280;SDS011;49406;51.044;3.766;2023-05-07T08:00:48;1.90;;;1.40;;
63280;SDS011;49406;51.044;3.766;2023-05-07T08:03:22;1.60;;;1.30;;
63280;SDS011;49406;51.044;3.766;2023-05-07T08:05:57;2.10;;;1.10;;
63280;SDS011;49406;51.044;3.766;2023-05-07T08:08:31;7.00;;;2.30;;
63280;SDS011;49406;51.044;3.766;2023-05-07T08:11:05;2.60;;;2.20;;
63280;SDS011;49406;51.044;3.766;2023-05-07T08:13:40;7.90;;;2.00;;
63280;SDS011;49406;51.044;3.766;2023-05-07T08:16:14;2.90;;;2.60;;
63280;SDS011;49406;51.044;3.766;2023-05-07T08:18:49;2.40;;;1.80;;
63280;SDS011;49406;51.044;3.766;2023-05-07T08:21:23;17.20;;;2.00;;
63280;SDS011;49406;51.044;3.766;2023-05-07T08:23:58;2.20;;;1.50;;
63280;SDS011;49406;51.044;3.766;2023-05-07T08:26:32;2.30;;;1.60;;
63280;SDS011;49406;51.044;3.766;2023-05-07T08:29:07;6.60;;;2.10;;
63280;SDS011;49406;51.044;3.766;2023-05-07T08:31:41;5.70;;;2.80;;
63280;SDS011;49406;51.044;3.766;2023-05-07T08:34:16;3.80;;;2.50;;
63280;SDS011;49406;51.044;3.766;2023-05-07T08:36:50;3.50;;;2.30;;
63280;SDS011;49406;51.044;3.766;2023-05-07T08:39:25;4.70;;;2.00;;
63280;SDS011;49406;51.044;3.766;2023-05-07T08:42:00;3.80;;;1.50;;
63280;SDS011;49406;51.044;3.766;2023-05-07T08:44:36;1.70;;;1.00;;
63280;SDS011;49406;51.044;3.766;2023-05-07T08:47:13;5.00;;;2.50;;
63280;SDS011;49406;51.044;3.766;2023-05-07T08:49:48;4.20;;;3.00;;
63280;SDS011;49406;51.044;3.766;2023-05-07T08:52:23;3.70;;;1.90;;
63280;SDS011;49406;51.044;3.766;2023-05-07T08:54:59;4.50;;;2.60;;
63280;SDS011;49406;51.044;3.766;2023-05-07T08:57:34;7.70;;;2.30;;
63280;SDS011;49406;51.044;3.766;2023-05-07T09:00:10;4.60;;;1.70;;
63280;SDS011;49406;51.044;3.766;2023-05-07T09:05:18;1.40;;;0.80;;
63280;SDS011;49406;51.044;3.766;2023-05-07T09:07:53;3.40;;;2.60;;
63280;SDS011;49406;51.044;3.766;2023-05-07T09:10:28;22.90;;;2.70;;
63280;SDS011;49406;51.044;3.766;2023-05-07T09:13:05;8.40;;;3.00;;
63280;SDS011;49406;51.044;3.766;2023-05-07T09:15:39;4.10;;;2.40;;
63280;SDS011;49406;51.044;3.766;2023-05-07T09:18:13;3.80;;;2.00;;
63280;SDS011;49406;51.044;3.766;2023-05-07T09:20:48;7.10;;;2.00;;
63280;SDS011;49406;51.044;3.766;2023-05-07T09:23:23;2.00;;;1.60;;
63280;SDS011;49406;51.044;3.766;2023-05-07T09:26:01;2.40;;;1.90;;
63280;SDS011;49406;51.044;3.766;2023-05-07T09:28:36;3.10;;;1.50;;
63280;SDS011;49406;51.044;3.766;2023-05-07T09:31:13;4.70;;;3.00;;
63280;SDS011;49406;51.044;3.766;2023-05-07T09:33:47;9.50;;;3.00;;
63280;SDS011;49406;51.044;3.766;2023-05-07T09:36:22;6.50;;;3.70;;
63280;SDS011;49406;51.044;3.766;2023-05-07T09:38:56;4.40;;;2.40;;
63280;SDS011;49406;51.044;3.766;2023-05-07T09:41:33;1.20;;;0.70;;
63280;SDS011;49406;51.044;3.766;2023-05-07T09:44:17;9.70;;;1.40;;
63280;SDS011;49406;51.044;3.766;2023-05-07T09:46:53;1.50;;;0.90;;
63280;SDS011;49406;51.044;3.766;2023-05-07T09:49:29;1.80;;;1.10;;
63280;SDS011;49406;51.044;3.766;2023-05-07T09:52:06;2.90;;;2.20;;
63280;SDS011;49406;51.044;3.766;2023-05-07T09:54:41;4.60;;;1.50;;
63280;SDS011;49406;51.044;3.766;2023-05-07T09:57:17;4.00;;;1.60;;
63280;SDS011;49406;51.044;3.766;2023-05-07T09:59:54;3.00;;;1.40;;
63280;SDS011;49406;51.044;3.766;2023-05-07T10:02:30;8.30;;;2.50;;
63280;SDS011;49406;51.044;3.766;2023-05-07T10:05:08;2.50;;;1.80;;
63280;SDS011;49406;51.044;3.766;2023-05-07T10:07:43;7.80;;;2.30;;
63280;SDS011;49406;51.044;3.766;2023-05-07T10:10:17;2.30;;;0.90;;
63280;SDS011;49406;51.044;3.766;2023-05-07T10:12:53;4.10;;;1.10;;
63280;SDS011;49406;51.044;3.766;2023-05-07T10:18:01;3.50;;;2.30;;
63280;SDS011;49406;51.044;3.766;2023-05-07T10:20:38;9.10;;;1.60;;
63280;SDS011;49406;51.044;3.766;2023-05-07T10:23:16;4.40;;;3.10;;
63280;SDS011;49406;51.044;3.766;2023-05-07T10:25:55;1.40;;;0.80;;
63280;SDS011;49406;51.044;3.766;2023-05-07T10:28:32;2.00;;;1.30;;
63280;SDS011;49406;51.044;3.766;2023-05-07T10:31:22;2.70;;;2.50;;
63280;SDS011;49406;51.044;3.766;2023-05-07T10:34:13;1.50;;;0.80;;
63280;SDS011;49406;51.044;3.766;2023-05-07T10:36:52;1.30;;;0.90;;
63280;SDS011;49406;51.044;3.766;2023-05-07T10:39:28;2.60;;;1.40;;
63280;SDS011;49406;51.044;3.766;2023-05-07T10:42:10;5.00;;;2.80;;
63280;SDS011;49406;51.044;3.766;2023-05-07T10:44:45;2.10;;;0.90;;
63280;SDS011;49406;51.044;3.766;2023-05-07T10:47:20;9.10;;;1.50;;
63280;SDS011;49406;51.044;3.766;2023-05-07T10:53:21;3.30;;;2.00;;
63280;SDS011;49406;51.044;3.766;2023-05-07T11:04:39;12.10;;;3.40;;
63280;SDS011;49406;51.044;3.766;2023-05-07T11:07:19;2.40;;;1.30;;
63280;SDS011;49406;51.044;3.766;2023-05-07T11:09:59;2.10;;;1.20;;
63280;SDS011;49406;51.044;3.766;2023-05-07T11:15:45;2.60;;;1.10;;
63280;SDS011;49406;51.044;3.766;2023-05-07T11:20:54;3.00;;;0.80;;
63280;SDS011;49406;51.044;3.766;2023-05-07T11:26:40;1.80;;;1.40;;
63280;SDS011;49406;51.044;3.766;2023-05-07T11:29:17;5.80;;;2.80;;
63280;SDS011;49406;51.044;3.766;2023-05-07T11:31:53;1.40;;;0.90;;
63280;SDS011;49406;51.044;3.766;2023-05-07T11:34:29;2.30;;;1.30;;
63280;SDS011;49406;51.044;3.766;2023-05-07T11:37:04;1.40;;;1.20;;
63280;SDS011;49406;51.044;3.766;2023-05-07T11:39:38;2.90;;;1.10;;
63280;SDS011;49406;51.044;3.766;2023-05-07T11:42:27;2.30;;;0.90;;
63280;SDS011;49406;51.044;3.766;2023-05-07T11:45:03;1.90;;;1.10;;
63280;SDS011;49406;51.044;3.766;2023-05-07T11:47:41;1.60;;;1.00;;
63280;SDS011;49406;51.044;3.766;2023-05-07T11:50:15;1.80;;;1.40;;
63280;SDS011;49406;51.044;3.766;2023-05-07T11:55:24;2.50;;;2.00;;
63280;SDS011;49406;51.044;3.766;2023-05-07T11:58:00;1.90;;;1.70;;
63280;SDS011;49406;51.044;3.766;2023-05-07T12:00:34;6.90;;;2.10;;
63280;SDS011;49406;51.044;3.766;2023-05-07T12:03:08;1.90;;;1.20;;
63280;SDS011;49406;51.044;3.766;2023-05-07T12:05:43;1.80;;;1.00;;
63280;SDS011;49406;51.044;3.766;2023-05-07T12:08:18;1.10;;;0.70;;
63280;SDS011;49406;51.044;3.766;2023-05-07T12:10:53;2.40;;;1.50;;
63280;SDS011;49406;51.044;3.766;2023-05-07T12:13:28;3.90;;;1.60;;
63280;SDS011;49406;51.044;3.766;2023-05-07T12:16:02;3.80;;;1.80;;
63280;SDS011;49406;51.044;3.766;2023-05-07T12:21:12;1.90;;;1.20;;
63280;SDS011;49406;51.044;3.766;2023-05-07T12:26:21;2.20;;;1.70;;
63280;SDS011;49406;51.044;3.766;2023-05-07T12:28:56;2.10;;;1.40;;
63280;SDS011;49406;51.044;3.766;2023-05-07T12:31:31;5.30;;;3.00;;
63280;SDS011;49406;51.044;3.766;2023-05-07T12:34:05;2.10;;;1.30;;
63280;SDS011;49406;51.044;3.766;2023-05-07T12:36:40;2.00;;;1.30;;
63280;SDS011;49406;51.044;3.766;2023-05-07T12:39:14;1.50;;;1.00;;
63280;SDS011;49406;51.044;3.766;2023-05-07T12:41:55;1.90;;;1.30;;
63280;SDS011;49406;51.044;3.766;2023-05-07T12:44:31;1.50;;;1.10;;
63280;SDS011;49406;51.044;3.766;2023-05-07T12:47:06;3.20;;;1.80;;
63280;SDS011;49406;51.044;3.766;2023-05-07T12:49:41;2.90;;;1.90;;
63280;SDS011;49406;51.044;3.766;2023-05-07T12:52:17;3.20;;;1.40;;
63280;SDS011;49406;51.044;3.766;2023-05-07T12:54:52;2.40;;;1.40;;
63280;SDS011;49406;51.044;3.766;2023-05-07T12:57:27;2.90;;;2.20;;
63280;SDS011;49406;51.044;3.766;2023-05-07T13:00:01;5.80;;;1.80;;
63280;SDS011;49406;51.044;3.766;2023-05-07T13:02:39;1.90;;;1.20;;
63280;SDS011;49406;51.044;3.766;2023-05-07T13:05:15;1.60;;;1.20;;
63280;SDS011;49406;51.044;3.766;2023-05-07T13:07:53;2.70;;;1.80;;
63280;SDS011;49406;51.044;3.766;2023-05-07T13:10:28;1.90;;;1.50;;
63280;SDS011;49406;51.044;3.766;2023-05-07T13:13:02;1.20;;;0.80;;
63280;SDS011;49406;51.044;3.766;2023-05-07T13:15:37;2.60;;;2.20;;
63280;SDS011;49406;51.044;3.766;2023-05-07T13:18:11;2.30;;;1.20;;
63280;SDS011;49406;51.044;3.766;2023-05-07T13:23:18;1.50;;;1.30;;
63280;SDS011;49406;51.044;3.766;2023-05-07T13:25:53;2.80;;;1.40;;
63280;SDS011;49406;51.044;3.766;2023-05-07T13:28:28;1.80;;;1.50;;
63280;SDS011;49406;51.044;3.766;2023-05-07T13:31:02;1.90;;;1.70;;
63280;SDS011;49406;51.044;3.766;2023-05-07T13:33:37;3.00;;;2.20;;
63280;SDS011;49406;51.044;3.766;2023-05-07T13:36:11;1.40;;;1.00;;
63280;SDS011;49406;51.044;3.766;2023-05-07T13:38:45;1.80;;;1.30;;
63280;SDS011;49406;51.044;3.766;2023-05-07T13:41:20;3.00;;;1.60;;
63280;SDS011;49406;51.044;3.766;2023-05-07T13:43:55;1.50;;;1.00;;
63280;SDS011;49406;51.044;3.766;2023-05-07T13:46:29;2.00;;;1.00;;
63280;SDS011;49406;51.044;3.766;2023-05-07T13:49:04;2.90;;;1.70;;
63280;SDS011;49406;51.044;3.766;2023-05-07T13:51:38;2.10;;;1.50;;
63280;SDS011;49406;51.044;3.766;2023-05-07T13:54:12;1.50;;;1.00;;
63280;SDS011;49406;51.044;3.766;2023-05-07T13:56:47;3.20;;;2.10;;
63280;SDS011;49406;51.044;3.766;2023-05-07T13:59:21;1.40;;;0.90;;
63280;SDS011;49406;51.044;3.766;2023-05-07T14:01:56;2.40;;;1.50;;
63280;SDS011;49406;51.044;3.766;2023-05-07T14:04:30;2.40;;;1.80;;
63280;SDS011;49406;51.044;3.766;2023-05-07T14:07:05;1.50;;;1.20;;
63280;SDS011;49406;51.044;3.766;2023-05-07T14:09:39;3.50;;;2.50;;
63280;SDS011;49406;51.044;3.766;2023-05-07T14:12:13;1.20;;;0.70;;
63280;SDS011;49406;51.044;3.766;2023-05-07T14:14:48;2.50;;;1.20;;
63280;SDS011;49406;51.044;3.766;2023-05-07T14:17:22;2.40;;;2.00;;
63280;SDS011;49406;51.044;3.766;2023-05-07T14:19:58;2.10;;;1.40;;
63280;SDS011;49406;51.044;3.766;2023-05-07T14:22:32;2.00;;;1.00;;
63280;SDS011;49406;51.044;3.766;2023-05-07T14:25:07;4.20;;;1.40;;
63280;SDS011;49406;51.044;3.766;2023-05-07T14:27:42;4.30;;;0.90;;
63280;SDS011;49406;51.044;3.766;2023-05-07T14:30:17;1.40;;;0.90;;
63280;SDS011;49406;51.044;3.766;2023-05-07T14:32:51;4.90;;;1.90;;
63280;SDS011;49406;51.044;3.766;2023-05-07T14:35:26;7.50;;;1.70;;
63280;SDS011;49406;51.044;3.766;2023-05-07T14:38:00;3.20;;;1.90;;
63280;SDS011;49406;51.044;3.766;2023-05-07T14:40:35;2.30;;;1.60;;
63280;SDS011;49406;51.044;3.766;2023-05-07T14:43:09;4.00;;;1.90;;
63280;SDS011;49406;51.044;3.766;2023-05-07T14:45:43;5.40;;;2.40;;
63280;SDS011;49406;51.044;3.766;2023-05-07T14:48:18;2.40;;;2.00;;
63280;SDS011;49406;51.044;3.766;2023-05-07T14:50:52;1.90;;;1.40;;
63280;SDS011;49406;51.044;3.766;2023-05-07T14:53:27;1.70;;;1.40;;
63280;SDS011;49406;51.044;3.766;2023-05-07T14:56:02;3.10;;;2.40;;
63280;SDS011;49406;51.044;3.766;2023-05-07T14:58:37;5.90;;;2.20;;
63280;SDS011;49406;51.044;3.766;2023-05-07T15:01:12;3.20;;;2.40;;
63280;SDS011;49406;51.044;3.766;2023-05-07T15:03:46;2.40;;;1.60;;
63280;SDS011;49406;51.044;3.766;2023-05-07T15:06:21;1.70;;;1.60;;
63280;SDS011;49406;51.044;3.766;2023-05-07T15:08:56;1.90;;;1.20;;
63280;SDS011;49406;51.044;3.766;2023-05-07T15:11:30;1.90;;;1.40;;
63280;SDS011;49406;51.044;3.766;2023-05-07T15:14:05;1.80;;;1.20;;
63280;SDS011;49406;51.044;3.766;2023-05-07T15:16:39;1.20;;;0.80;;
63280;SDS011;49406;51.044;3.766;2023-05-07T15:19:14;0.60;;;0.50;;
63280;SDS011;49406;51.044;3.766;2023-05-07T15:21:48;2.30;;;0.90;;
63280;SDS011;49406;51.044;3.766;2023-05-07T15:24:23;4.20;;;0.90;;
63280;SDS011;49406;51.044;3.766;2023-05-07T15:26:57;1.00;;;0.30;;
63280;SDS011;49406;51.044;3.766;2023-05-07T15:29:32;2.30;;;1.90;;
63280;SDS011;49406;51.044;3.766;2023-05-07T15:32:06;2.90;;;1.50;;
63280;SDS011;49406;51.044;3.766;2023-05-07T15:34:41;2.60;;;1.90;;
63280;SDS011;49406;51.044;3.766;2023-05-07T15:37:16;2.20;;;1.00;;
63280;SDS011;49406;51.044;3.766;2023-05-07T15:39:50;1.40;;;0.80;;
63280;SDS011;49406;51.044;3.766;2023-05-07T15:42:24;2.10;;;1.00;;
63280;SDS011;49406;51.044;3.766;2023-05-07T15:44:59;1.80;;;1.10;;
63280;SDS011;49406;51.044;3.766;2023-05-07T15:47:33;1.20;;;0.60;;
63280;SDS011;49406;51.044;3.766;2023-05-07T15:50:08;4.00;;;1.90;;
63280;SDS011;49406;51.044;3.766;2023-05-07T15:55:17;3.60;;;2.00;;
63280;SDS011;49406;51.044;3.766;2023-05-07T15:57:52;0.90;;;0.80;;
63280;SDS011;49406;51.044;3.766;2023-05-07T16:00:27;2.40;;;1.80;;
63280;SDS011;49406;51.044;3.766;2023-05-07T16:03:01;2.00;;;1.40;;
63280;SDS011;49406;51.044;3.766;2023-05-07T16:05:36;1.30;;;0.90;;
63280;SDS011;49406;51.044;3.766;2023-05-07T16:08:10;0.80;;;0.70;;
63280;SDS011;49406;51.044;3.766;2023-05-07T16:10:45;1.20;;;0.70;;
63280;SDS011;49406;51.044;3.766;2023-05-07T16:13:20;1.20;;;0.70;;
63280;SDS011;49406;51.044;3.766;2023-05-07T16:15:56;1.80;;;0.50;;
63280;SDS011;49406;51.044;3.766;2023-05-07T16:18:30;2.90;;;1.10;;
63280;SDS011;49406;51.044;3.766;2023-05-07T16:21:06;1.60;;;1.20;;
63280;SDS011;49406;51.044;3.766;2023-05-07T16:23:40;2.20;;;1.40;;
63280;SDS011;49406;51.044;3.766;2023-05-07T16:26:15;1.60;;;1.30;;